PWSweather.com
Personal Weather Stations
Station Observations
TARRYHILL
Tarrytown, NY 10591

Tarrytown, NY 10591

Lat: 41.05185, Lon: -73.85296

Elevation: 341

Station Type: Davis Vantage Vue

Latest ConditionsUpdated 6:00:01 PM EDT Thursday, Jul 18, 2019
Currently Today's Max Today's Min Today's Average
Temperature 72.6°F22.6°C 75.4°F24.1°C 71.7°F22.1°C 73.3°F22.9°C
Dew Point 70.4°F21.3°C 73.2°F22.9°C 69.6°F20.9°C 71.1°F21.7°C
Winds Calm Calm 1.2 mph -1.9 kmh - - 0.1 mph 0.2 kmh
Wind Gusts 1.2 mph1.9 kmh 3.5 mph5.6 kmh - -
Humidity 93% 93% 92% 93%
Pressure 29.89 in1012.2 mb 29.92 in1013.2 mb 29.88 in1011.9 mb -
Precipitation - 1.02 in25.9 mm - -
Hour Temp Dew Point Humidity Winds Wind Gusts Pressure Precip Precip Rate Daily Precip Total
06:00 PM 72.6°F22.6°C 70.4°F21.3°C 93% Calm Calm 1.2 mph1.9 kmh 29.89 in1012.2 mb - 0.01 in0.3 mm 1.02 in25.9 mm
05:30 PM 73.0°F22.8°C 70.5°F21.4°C 92% 1.2 mph WNW1.9 kmh WNW 1.2 mph1.9 kmh 29.89 in1012.2 mb - 0.06 in1.5 mm 1.02 in25.9 mm
05:00 PM 74.1°F23.4°C 71.9°F22.2°C 93% 1.2 mph ESE1.9 kmh ESE 3.5 mph5.6 kmh 29.88 in1011.9 mb - 0.07 in1.8 mm 1.01 in25.7 mm
04:30 PM 74.5°F23.6°C 72.0°F22.2°C 92% Calm Calm -- 29.88 in1011.9 mb - 0.04 in1.0 mm 0.97 in24.6 mm
04:00 PM 75.4°F24.1°C 73.2°F22.9°C 93% Calm Calm -- 29.88 in1011.9 mb - 0.03 in0.8 mm 0.94 in23.9 mm
03:30 PM 74.5°F23.6°C 72.4°F22.4°C 93% Calm Calm 1.2 mph1.9 kmh 29.89 in1012.2 mb - 0.05 in1.3 mm 0.93 in23.6 mm
03:00 PM 74.0°F23.3°C 71.8°F22.1°C 93% Calm Calm -- 29.89 in1012.2 mb - 0.22 in5.6 mm 0.91 in23.1 mm
02:30 PM 74.0°F23.3°C 71.6°F22.0°C 92% Calm Calm -- 29.90 in1012.5 mb - 0.28 in7.1 mm 0.88 in22.4 mm
02:00 PM 74.3°F23.5°C 71.8°F22.1°C 92% Calm Calm 3.5 mph5.6 kmh 29.90 in1012.5 mb - 0.11 in2.8 mm 0.70 in17.8 mm
01:30 PM 74.8°F23.8°C 72.7°F22.6°C 93% Calm Calm 1.2 mph1.9 kmh 29.90 in1012.5 mb - 0.01 in0.3 mm 0.60 in15.2 mm
01:00 PM 74.0°F23.3°C 71.8°F22.1°C 93% Calm Calm 1.2 mph1.9 kmh 29.91 in1012.9 mb - 0.08 in2.0 mm 0.59 in15.0 mm
12:30 PM 74.0°F23.3°C 71.8°F22.1°C 93% Calm Calm -- 29.91 in1012.9 mb - 0.10 in2.5 mm 0.59 in15.0 mm
12:00 PM 73.6°F23.1°C 71.5°F21.9°C 93% Calm Calm -- 29.91 in1012.9 mb - 0.04 in1.0 mm 0.52 in13.2 mm
11:30 AM 73.7°F23.2°C 71.5°F21.9°C 93% Calm Calm 1.2 mph1.9 kmh 29.91 in1012.9 mb - 0.02 in0.5 mm 0.49 in12.4 mm
11:00 AM 73.8°F23.2°C 71.7°F22.1°C 93% Calm Calm -- 29.91 in1012.9 mb - 0.07 in1.8 mm 0.48 in12.2 mm
10:30 AM 74.5°F23.6°C 72.3°F22.4°C 93% Calm Calm -- 29.91 in1012.9 mb - 0.10 in2.5 mm 0.47 in11.9 mm
10:00 AM 74.2°F23.4°C 72.0°F22.2°C 93% Calm Calm -- 29.91 in1012.9 mb - 0.07 in1.8 mm 0.41 in10.4 mm
09:30 AM 73.9°F23.3°C 71.8°F22.1°C 93% Calm Calm -- 29.92 in1013.2 mb - 0.04 in1.0 mm 0.38 in9.7 mm
09:00 AM 74.2°F23.4°C 72.1°F22.3°C 93% Calm Calm -- 29.92 in1013.2 mb - 0.00 in0.0 mm 0.34 in8.6 mm
08:30 AM 74.1°F23.4°C 71.9°F22.2°C 93% Calm Calm -- 29.92 in1013.2 mb - 0.00 in0.0 mm 0.34 in8.6 mm
08:00 AM 73.6°F23.1°C 71.4°F21.9°C 93% Calm Calm -- 29.91 in1012.9 mb - 0.00 in0.0 mm 0.34 in8.6 mm
07:30 AM 73.5°F23.1°C 71.4°F21.9°C 93% Calm Calm -- 29.91 in1012.9 mb - 0.00 in0.0 mm 0.34 in8.6 mm
07:00 AM 73.0°F22.8°C 70.9°F21.6°C 93% Calm Calm -- 29.90 in1012.5 mb - 0.00 in0.0 mm 0.34 in8.6 mm
06:30 AM 72.7°F22.6°C 70.6°F21.4°C 93% Calm Calm -- 29.91 in1012.9 mb - 0.02 in0.5 mm 0.34 in8.6 mm
06:00 AM 72.4°F22.4°C 70.3°F21.3°C 93% Calm Calm -- 29.90 in1012.5 mb - 0.03 in0.8 mm 0.34 in8.6 mm
05:30 AM 72.3°F22.4°C 70.1°F21.2°C 93% Calm Calm -- 29.90 in1012.5 mb - 0.12 in3.0 mm 0.32 in8.1 mm
05:00 AM 72.2°F22.3°C 70.1°F21.2°C 93% Calm Calm -- 29.90 in1012.5 mb - 0.23 in5.8 mm 0.31 in7.9 mm
04:30 AM 72.4°F22.4°C 70.3°F21.3°C 93% Calm Calm -- 29.90 in1012.5 mb - 0.21 in5.3 mm 0.21 in5.3 mm
04:00 AM 72.3°F22.4°C 70.2°F21.2°C 93% Calm Calm -- 29.89 in1012.2 mb - 0.08 in2.0 mm 0.08 in2.0 mm
03:30 AM 72.2°F22.3°C 70.1°F21.2°C 93% Calm Calm -- 29.90 in1012.5 mb - 0.00 in0.0 mm 0.10 in2.5 mm
03:00 AM 72.0°F22.2°C 69.9°F21.1°C 93% Calm Calm -- 29.89 in1012.2 mb - 0.00 in0.0 mm 0.10 in2.5 mm
02:30 AM 72.2°F22.3°C 70.1°F21.2°C 93% Calm Calm -- 29.89 in1012.2 mb - 0.00 in0.0 mm 0.10 in2.5 mm
02:00 AM 72.0°F22.2°C 69.9°F21.1°C 93% Calm Calm -- 29.88 in1011.9 mb - 0.00 in0.0 mm 0.10 in2.5 mm
01:30 AM 71.7°F22.1°C 69.6°F20.9°C 93% Calm Calm -- 29.88 in1011.9 mb - 0.00 in0.0 mm 0.10 in2.5 mm
01:00 AM 71.9°F22.2°C 69.8°F21.0°C 93% Calm Calm -- 29.88 in1011.9 mb - 0.00 in0.0 mm 0.10 in2.5 mm
12:30 AM 72.1°F22.3°C 70.0°F21.1°C 93% Calm Calm -- 29.89 in1012.2 mb - 0.02 in0.5 mm 0.10 in2.5 mm
12:00 AM 72.5°F22.5°C 70.0°F21.1°C 92% 1.2 mph S1.9 kmh S 2.3 mph3.7 kmh 29.90 in1012.5 mb - 0.08 in2.0 mm 0.08 in2.0 mm